createdAt,value
2023-03-17T00:01:48.208Z,-3.30
2023-03-17T00:03:51.924Z,-3.41
2023-03-17T00:05:56.357Z,-3.51
2023-03-17T00:08:04.513Z,-3.61
2023-03-17T00:10:14.806Z,-3.48
2023-03-17T00:12:18.338Z,-3.41
2023-03-17T00:14:23.147Z,-3.38
2023-03-17T00:16:27.796Z,-3.55
2023-03-17T00:18:32.014Z,-3.61
2023-03-17T00:20:34.899Z,-3.58
2023-03-17T00:22:37.979Z,-3.52
2023-03-17T00:24:40.847Z,-3.63
2023-03-17T00:26:43.843Z,-3.73
2023-03-17T00:28:46.912Z,-3.67
2023-03-17T00:30:55.278Z,-3.60
2023-03-17T00:32:59.046Z,-3.59
2023-03-17T00:35:02.398Z,-3.55
2023-03-17T00:37:05.258Z,-3.41
2023-03-17T00:41:16.534Z,-3.24
2023-03-17T00:43:20.096Z,-3.20
2023-03-17T00:45:24.464Z,-3.32
2023-03-17T00:47:29.153Z,-3.36
2023-03-17T00:49:33.003Z,-3.47
2023-03-17T00:51:36.393Z,-3.46
2023-03-17T00:53:40.093Z,-3.42
2023-03-17T00:55:44.884Z,-3.46
2023-03-17T00:57:48.926Z,-3.62
2023-03-17T00:59:52.663Z,-3.56
2023-03-17T01:01:55.702Z,-3.51
2023-03-17T01:04:00.096Z,-3.48
2023-03-17T01:06:05.035Z,-3.55
2023-03-17T01:08:09.514Z,-3.63
2023-03-17T01:10:15.845Z,-3.60
2023-03-17T01:12:18.923Z,-3.58
2023-03-17T01:14:22.835Z,-3.46
2023-03-17T01:16:25.794Z,-3.59
2023-03-17T01:18:29.133Z,-3.79
2023-03-17T01:20:35.697Z,-3.82
2023-03-17T01:22:38.624Z,-3.74
2023-03-17T01:24:41.771Z,-3.66
2023-03-17T01:26:45.152Z,-3.65
2023-03-17T01:28:48.229Z,-3.93
2023-03-17T01:30:51.463Z,-4.01
2023-03-17T01:32:55.945Z,-4.02
2023-03-17T01:34:59.624Z,-4.02
2023-03-17T01:37:04.108Z,-3.92
2023-03-17T01:39:07.711Z,-3.79
2023-03-17T01:41:11.584Z,-3.78
2023-03-17T01:43:21.061Z,-3.81
2023-03-17T01:46:00.915Z,-3.89
2023-03-17T01:48:04.203Z,-3.88
2023-03-17T01:50:10.466Z,-3.92
2023-03-17T01:52:18.655Z,-3.90
2023-03-17T01:54:26.573Z,-3.76
2023-03-17T01:56:30.535Z,-3.74
2023-03-17T01:58:34.725Z,-3.62
2023-03-17T02:00:38.364Z,-3.64
2023-03-17T02:02:44.134Z,-3.61
2023-03-17T02:04:47.142Z,-3.63
2023-03-17T02:06:57.945Z,-3.59
2023-03-17T02:09:03.400Z,-3.46
2023-03-17T02:11:07.325Z,-3.58
2023-03-17T02:13:12.863Z,-3.62
2023-03-17T02:15:16.006Z,-3.68
2023-03-17T02:17:21.503Z,-3.71
2023-03-17T02:19:24.833Z,-3.68
2023-03-17T02:21:38.733Z,-3.76
2023-03-17T02:23:44.534Z,-3.63
2023-03-17T02:25:47.973Z,-3.69
2023-03-17T02:27:55.132Z,-3.72
2023-03-17T02:29:58.542Z,-3.83
2023-03-17T02:32:01.674Z,-3.88
2023-03-17T02:34:06.154Z,-3.74
2023-03-17T02:36:09.883Z,-3.78
2023-03-17T02:38:14.481Z,-3.78
2023-03-17T02:40:17.856Z,-3.90
2023-03-17T02:42:21.278Z,-3.89
2023-03-17T02:44:24.159Z,-3.85
2023-03-17T02:46:29.660Z,-4.03
2023-03-17T02:48:37.753Z,-4.15
2023-03-17T02:50:41.016Z,-4.10
2023-03-17T02:52:43.858Z,-4.07
2023-03-17T02:54:48.520Z,-3.89
2023-03-17T02:56:51.499Z,-3.86
2023-03-17T02:58:54.423Z,-3.82
2023-03-17T03:00:57.391Z,-3.82
2023-03-17T03:03:00.307Z,-3.83
2023-03-17T03:05:03.390Z,-3.88
2023-03-17T03:07:06.964Z,-3.79
2023-03-17T03:09:10.910Z,-3.76
2023-03-17T03:11:15.601Z,-3.95
2023-03-17T03:13:18.417Z,-4.02
2023-03-17T03:15:21.905Z,-4.09
2023-03-17T03:17:24.949Z,-4.03
2023-03-17T03:19:28.600Z,-3.96
2023-03-17T03:21:31.954Z,-4.27
2023-03-17T03:23:35.039Z,-4.25
2023-03-17T03:25:38.350Z,-4.16
2023-03-17T03:27:42.771Z,-4.30
2023-03-17T03:29:45.600Z,-4.26
2023-03-17T03:31:49.019Z,-4.18
2023-03-17T03:33:51.986Z,-4.14
2023-03-17T03:35:55.158Z,-4.21
2023-03-17T03:37:58.256Z,-4.19
2023-03-17T03:40:01.290Z,-4.19
2023-03-17T03:42:04.493Z,-4.19
2023-03-17T03:44:09.091Z,-4.19
2023-03-17T03:46:11.961Z,-4.29
2023-03-17T03:48:14.980Z,-4.41
2023-03-17T03:50:18.306Z,-4.36
2023-03-17T03:52:22.728Z,-4.39
2023-03-17T03:54:25.669Z,-4.42
2023-03-17T03:56:28.590Z,-4.53
2023-03-17T03:58:31.398Z,-4.68
2023-03-17T04:00:36.093Z,-4.63
2023-03-17T04:02:39.243Z,-4.63
2023-03-17T04:04:43.056Z,-4.61
2023-03-17T04:06:46.154Z,-4.56
2023-03-17T04:08:49.325Z,-4.44
2023-03-17T04:10:52.195Z,-4.45
2023-03-17T04:12:56.121Z,-4.36
2023-03-17T04:14:59.048Z,-4.46
2023-03-17T04:17:05.048Z,-4.39
2023-03-17T04:19:07.975Z,-4.53
2023-03-17T04:21:10.985Z,-4.45
2023-03-17T04:23:14.189Z,-4.34
2023-03-17T04:25:17.294Z,-4.18
2023-03-17T04:27:20.172Z,-4.00
2023-03-17T04:29:23.775Z,-4.08
2023-03-17T04:31:26.743Z,-4.12
2023-03-17T04:33:31.157Z,-4.14
2023-03-17T04:35:34.122Z,-3.97
2023-03-17T04:37:37.097Z,-3.93
2023-03-17T04:39:40.149Z,-3.98
2023-03-17T04:41:44.035Z,-3.82
2023-03-17T04:43:46.923Z,-3.93
2023-03-17T04:45:49.851Z,-3.93
2023-03-17T04:47:52.806Z,-3.89
2023-03-17T04:49:57.194Z,-3.94
2023-03-17T04:52:00.094Z,-3.89
2023-03-17T04:54:03.244Z,-3.82
2023-03-17T04:56:06.982Z,-3.90
2023-03-17T04:58:11.762Z,-3.94
2023-03-17T05:00:16.966Z,-3.82
2023-03-17T05:02:20.166Z,-3.89
2023-03-17T05:04:31.070Z,-3.86
2023-03-17T05:06:37.546Z,-3.82
2023-03-17T05:08:40.511Z,-3.86
2023-03-17T05:10:43.414Z,-3.91
2023-03-17T05:12:46.319Z,-3.88
2023-03-17T05:14:49.245Z,-3.86
2023-03-17T05:16:52.462Z,-3.81
2023-03-17T05:18:55.741Z,-3.82
2023-03-17T05:20:58.747Z,-3.86
2023-03-17T05:23:03.347Z,-3.85
2023-03-17T05:25:07.314Z,-3.84
2023-03-17T05:27:10.265Z,-3.87
2023-03-17T05:29:13.240Z,-3.86
2023-03-17T05:31:16.276Z,-3.80
2023-03-17T05:33:20.470Z,-3.59
2023-03-17T05:35:23.975Z,-3.61
2023-03-17T05:37:26.973Z,-3.53
2023-03-17T05:39:31.554Z,-3.47
2023-03-17T05:41:34.502Z,-3.44
2023-03-17T05:43:37.793Z,-3.25
2023-03-17T05:45:41.595Z,-3.05
2023-03-17T05:47:44.756Z,-3.08
2023-03-17T05:49:47.634Z,-2.83
2023-03-17T05:51:50.676Z,-2.64
2023-03-17T05:53:53.604Z,-2.45
2023-03-17T05:55:58.096Z,-2.16
2023-03-17T05:58:01.245Z,-2.10
2023-03-17T06:00:05.612Z,-1.98
2023-03-17T06:02:09.033Z,-1.68
2023-03-17T06:04:12.273Z,-1.57
2023-03-17T06:06:15.326Z,-1.73
2023-03-17T06:08:18.401Z,-1.77
2023-03-17T06:10:21.753Z,-1.65
2023-03-17T06:12:26.637Z,-1.27
2023-03-17T06:14:29.426Z,-0.88
2023-03-17T06:16:33.623Z,-0.48
2023-03-17T06:18:37.125Z,0.26
2023-03-17T06:20:40.181Z,1.11
2023-03-17T06:23:00.484Z,2.18
2023-03-17T06:25:06.821Z,3.18
2023-03-17T06:27:11.297Z,3.53
2023-03-17T06:29:16.427Z,4.68
2023-03-17T06:31:20.932Z,5.09
2023-03-17T06:33:24.303Z,5.47
2023-03-17T06:35:27.889Z,6.41
2023-03-17T06:37:31.186Z,7.81
2023-03-17T06:39:34.066Z,8.29
2023-03-17T06:41:37.337Z,8.49
2023-03-17T06:43:40.155Z,9.76
2023-03-17T06:45:44.546Z,10.13
2023-03-17T06:47:47.426Z,9.77
2023-03-17T06:49:50.528Z,9.33
2023-03-17T06:51:54.441Z,9.37
2023-03-17T06:53:57.618Z,10.75
2023-03-17T06:56:00.616Z,10.73
2023-03-17T06:58:03.808Z,11.80
2023-03-17T07:00:08.105Z,11.18
2023-03-17T07:02:13.009Z,9.59
2023-03-17T07:04:16.183Z,10.88
2023-03-17T07:06:19.317Z,11.25
2023-03-17T07:08:22.486Z,11.91
2023-03-17T07:10:25.836Z,11.47
2023-03-17T07:12:29.165Z,11.71
2023-03-17T07:14:34.129Z,10.27
2023-03-17T07:16:37.901Z,10.74
2023-03-17T07:18:42.653Z,11.86
2023-03-17T07:20:45.505Z,11.29
2023-03-17T07:22:48.477Z,9.72
2023-03-17T07:24:52.271Z,10.45
2023-03-17T07:26:55.277Z,11.51
2023-03-17T07:29:01.272Z,10.58
2023-03-17T07:31:08.127Z,9.34
2023-03-17T07:33:11.618Z,10.18
2023-03-17T07:35:16.448Z,8.75
2023-03-17T07:37:19.725Z,8.30
2023-03-17T07:39:22.813Z,9.33
2023-03-17T07:41:25.805Z,10.63
2023-03-17T07:43:28.797Z,8.23
2023-03-17T07:45:33.474Z,8.05
2023-03-17T07:47:36.752Z,8.83
2023-03-17T07:49:41.903Z,10.73
2023-03-17T07:51:46.996Z,10.81
2023-03-17T07:53:53.356Z,11.05
2023-03-17T07:55:56.436Z,10.79
2023-03-17T07:57:59.464Z,11.53
2023-03-17T08:00:02.620Z,11.55
2023-03-17T08:02:16.850Z,9.53
2023-03-17T08:04:19.405Z,9.65
2023-03-17T08:06:22.609Z,8.99
2023-03-17T08:08:28.556Z,9.02
2023-03-17T08:10:31.944Z,8.72
2023-03-17T08:12:35.474Z,8.95
2023-03-17T08:14:38.295Z,9.24
2023-03-17T08:16:41.681Z,9.61
2023-03-17T08:18:45.109Z,9.59
2023-03-17T08:20:48.267Z,9.50
2023-03-17T08:22:51.360Z,9.22
2023-03-17T08:24:56.023Z,9.44
2023-03-17T08:27:00.838Z,9.42
2023-03-17T08:29:05.309Z,9.11
2023-03-17T08:31:13.944Z,9.22
2023-03-17T08:33:17.368Z,9.81
2023-03-17T08:35:21.149Z,9.91
2023-03-17T08:37:25.103Z,10.18
2023-03-17T08:39:28.175Z,11.27
2023-03-17T08:41:32.929Z,11.70
2023-03-17T08:43:37.636Z,11.09
2023-03-17T08:45:41.048Z,10.92
2023-03-17T08:47:43.976Z,10.62
2023-03-17T08:49:47.136Z,10.32
2023-03-17T08:51:50.165Z,10.11
2023-03-17T08:53:54.224Z,10.06
2023-03-17T08:55:58.015Z,10.19
2023-03-17T08:58:03.866Z,9.82
2023-03-17T09:00:11.303Z,9.67
2023-03-17T09:02:15.277Z,11.33
2023-03-17T09:04:18.258Z,9.82
2023-03-17T09:06:22.492Z,11.10
2023-03-17T09:08:26.889Z,10.94
2023-03-17T09:10:30.696Z,10.86
2023-03-17T09:12:34.358Z,10.83
2023-03-17T09:14:43.938Z,10.67
2023-03-17T09:16:49.077Z,10.33
2023-03-17T09:18:52.747Z,10.77
2023-03-17T09:20:55.788Z,10.55
2023-03-17T09:22:59.468Z,10.05
2023-03-17T09:25:02.443Z,9.76
2023-03-17T09:27:05.916Z,10.43
2023-03-17T09:29:08.908Z,10.29
2023-03-17T09:31:13.571Z,10.96
2023-03-17T09:33:18.058Z,10.29
2023-03-17T09:35:21.113Z,9.67
2023-03-17T09:37:24.308Z,10.56
2023-03-17T09:39:27.862Z,10.31
2023-03-17T09:41:49.216Z,10.48
2023-03-17T09:43:57.127Z,10.32
2023-03-17T09:46:09.960Z,10.27
2023-03-17T09:48:42.118Z,9.75
2023-03-17T09:50:49.207Z,9.13
2023-03-17T09:52:53.384Z,9.58
2023-03-17T09:54:57.488Z,9.48
2023-03-17T09:57:07.084Z,9.54
2023-03-17T09:59:29.435Z,9.81
2023-03-17T10:01:32.535Z,10.46
2023-03-17T10:03:37.790Z,10.11
2023-03-17T10:05:40.932Z,10.52
2023-03-17T10:07:52.166Z,10.81
2023-03-17T10:10:01.797Z,10.66
2023-03-17T10:12:10.233Z,10.52
2023-03-17T10:14:30.010Z,10.39
2023-03-17T10:16:43.153Z,9.97
2023-03-17T10:18:54.686Z,10.07
2023-03-17T10:21:02.051Z,10.42
2023-03-17T10:23:07.965Z,10.27
2023-03-17T10:25:16.048Z,10.37
2023-03-17T10:27:19.855Z,10.25
2023-03-17T10:29:26.893Z,10.06
2023-03-17T10:31:35.816Z,10.79
2023-03-17T10:33:38.795Z,11.12
2023-03-17T10:35:45.221Z,10.95
2023-03-17T10:37:48.706Z,10.77
2023-03-17T10:39:52.983Z,10.40
2023-03-17T10:41:58.391Z,10.69
2023-03-17T10:44:01.350Z,10.66
2023-03-17T10:46:05.976Z,10.34
2023-03-17T10:48:11.000Z,10.74
2023-03-17T10:50:23.210Z,10.89
2023-03-17T10:52:30.636Z,10.74
2023-03-17T10:54:36.364Z,11.01
2023-03-17T10:56:42.756Z,10.79
2023-03-17T10:58:49.221Z,11.00
2023-03-17T11:00:57.189Z,11.11
2023-03-17T11:03:03.640Z,11.26
2023-03-17T11:05:17.676Z,11.24
2023-03-17T11:07:27.476Z,11.40
2023-03-17T11:09:36.148Z,10.89
2023-03-17T11:11:44.951Z,11.14
2023-03-17T11:13:48.428Z,10.52
2023-03-17T11:15:56.785Z,11.22
2023-03-17T11:18:01.549Z,11.25
2023-03-17T11:20:19.998Z,11.44
2023-03-17T11:22:31.098Z,11.19
2023-03-17T11:24:46.408Z,11.47
2023-03-17T11:26:59.621Z,11.60
2023-03-17T11:29:20.230Z,11.33
2023-03-17T11:31:31.479Z,11.56
2023-03-17T11:33:41.561Z,11.56
2023-03-17T11:35:56.475Z,11.88
2023-03-17T11:38:24.809Z,11.53
2023-03-17T11:40:35.421Z,11.54
2023-03-17T11:42:48.090Z,11.54
2023-03-17T11:45:22.937Z,11.40
2023-03-17T11:47:43.242Z,11.01
2023-03-17T11:49:52.890Z,11.08
2023-03-17T11:52:03.707Z,11.60
2023-03-17T11:54:18.609Z,11.50
2023-03-17T11:56:29.176Z,12.13
2023-03-17T11:58:37.356Z,12.19
2023-03-17T12:00:46.223Z,12.12
2023-03-17T12:02:54.915Z,12.24
2023-03-17T12:05:02.776Z,12.11
2023-03-17T12:07:14.084Z,12.28
2023-03-17T12:09:26.180Z,12.03
2023-03-17T12:11:35.474Z,12.34
2023-03-17T12:13:43.499Z,12.34
2023-03-17T12:15:51.386Z,11.90
2023-03-17T12:17:59.087Z,12.03
2023-03-17T12:20:16.823Z,11.43
2023-03-17T12:22:28.662Z,11.90
2023-03-17T12:24:35.547Z,11.96
2023-03-17T12:26:49.292Z,12.17
2023-03-17T12:28:57.957Z,12.29
2023-03-17T12:31:06.239Z,12.46
2023-03-17T12:33:18.431Z,12.12
2023-03-17T12:35:28.305Z,12.40
2023-03-17T12:37:31.572Z,12.28
2023-03-17T12:39:37.462Z,12.15
2023-03-17T12:41:48.184Z,11.94
2023-03-17T12:44:03.332Z,12.40
2023-03-17T12:46:35.668Z,12.07
2023-03-17T12:49:20.276Z,12.42
2023-03-17T12:51:50.372Z,12.37
2023-03-17T12:53:54.160Z,12.87
2023-03-17T12:56:02.492Z,12.06
2023-03-17T12:58:23.720Z,11.96
2023-03-17T13:00:30.308Z,11.66
2023-03-17T13:02:35.700Z,11.97
2023-03-17T13:04:39.570Z,12.41
2023-03-17T13:06:45.591Z,12.34
2023-03-17T13:08:50.631Z,12.58
2023-03-17T13:11:18.949Z,12.29
2023-03-17T13:13:41.261Z,12.50
2023-03-17T13:15:54.419Z,12.33
2023-03-17T13:18:27.514Z,12.35
2023-03-17T13:20:39.403Z,12.47
2023-03-17T13:23:03.545Z,12.43
2023-03-17T13:25:30.733Z,12.59
2023-03-17T13:27:45.442Z,12.72
2023-03-17T13:29:49.832Z,12.75
2023-03-17T13:31:53.115Z,12.55
2023-03-17T13:33:57.941Z,12.72
2023-03-17T13:36:30.856Z,12.63
2023-03-17T13:39:18.264Z,12.46
2023-03-17T13:41:38.017Z,12.65
2023-03-17T13:44:02.433Z,12.73
2023-03-17T13:46:26.938Z,13.06
2023-03-17T13:48:34.657Z,12.92
2023-03-17T13:50:40.474Z,12.84
2023-03-17T13:52:48.859Z,12.67
2023-03-17T13:55:02.002Z,12.63
2023-03-17T13:57:26.814Z,12.75
2023-03-17T13:59:48.560Z,12.46
2023-03-17T14:01:58.015Z,12.05
2023-03-17T14:04:08.820Z,12.27
2023-03-17T14:06:14.616Z,12.45
2023-03-17T14:08:26.003Z,12.32
2023-03-17T14:10:30.662Z,12.36
2023-03-17T14:12:40.800Z,12.34
2023-03-17T14:14:50.253Z,12.26
2023-03-17T14:16:59.629Z,12.62
2023-03-17T14:19:16.506Z,12.82
2023-03-17T14:21:22.694Z,12.81
2023-03-17T14:23:26.114Z,12.76
2023-03-17T14:25:34.411Z,12.44
2023-03-17T14:27:39.702Z,12.30
2023-03-17T14:29:43.661Z,12.46
2023-03-17T14:31:50.150Z,11.99
2023-03-17T14:33:56.829Z,11.68
2023-03-17T14:36:01.675Z,11.86
2023-03-17T14:38:19.305Z,11.45
2023-03-17T14:40:25.004Z,11.73
2023-03-17T14:42:29.883Z,11.58
2023-03-17T14:44:40.200Z,11.84
2023-03-17T14:46:43.316Z,11.85
2023-03-17T14:48:49.586Z,11.95
2023-03-17T14:50:55.712Z,11.89
2023-03-17T14:52:59.840Z,11.79
2023-03-17T14:55:02.875Z,11.64
2023-03-17T14:57:08.434Z,11.78
2023-03-17T14:59:19.728Z,11.73
2023-03-17T15:01:34.209Z,11.86
2023-03-17T15:03:40.445Z,11.78
2023-03-17T15:05:46.622Z,11.83
2023-03-17T15:07:51.324Z,11.62
2023-03-17T15:10:00.167Z,11.24
2023-03-17T15:12:06.256Z,11.27
2023-03-17T15:14:19.342Z,11.27
2023-03-17T15:16:27.820Z,11.25
2023-03-17T15:18:31.125Z,11.27
2023-03-17T15:20:35.644Z,11.30
2023-03-17T15:22:43.195Z,11.27
2023-03-17T15:24:58.658Z,11.28
2023-03-17T15:27:03.588Z,11.23
2023-03-17T15:29:07.857Z,11.21
2023-03-17T15:31:14.172Z,11.22
2023-03-17T15:33:22.197Z,11.20
2023-03-17T15:35:25.466Z,11.07
2023-03-17T15:37:30.622Z,11.13
2023-03-17T15:39:34.236Z,11.08
2023-03-17T15:41:38.700Z,10.96
2023-03-17T15:43:41.687Z,11.04
2023-03-17T15:45:46.442Z,10.51
2023-03-17T15:47:49.344Z,10.61
2023-03-17T15:49:52.779Z,10.52
2023-03-17T15:51:55.637Z,10.60
2023-03-17T15:53:58.477Z,10.63
2023-03-17T15:56:01.415Z,10.56
2023-03-17T15:58:05.905Z,10.35
2023-03-17T16:00:10.883Z,10.19
2023-03-17T16:02:28.162Z,10.24
2023-03-17T16:04:31.544Z,10.13
2023-03-17T16:06:35.371Z,10.18
2023-03-17T16:08:39.041Z,10.08
2023-03-17T16:10:42.230Z,10.07
2023-03-17T16:12:45.562Z,9.97
2023-03-17T16:14:50.198Z,9.83
2023-03-17T16:16:53.306Z,9.58
2023-03-17T16:18:56.400Z,9.74
2023-03-17T16:20:59.359Z,9.73
2023-03-17T16:23:08.414Z,9.71
2023-03-17T16:25:21.750Z,9.65
2023-03-17T16:27:24.906Z,9.59
2023-03-17T16:29:27.845Z,9.52
2023-03-17T16:31:32.360Z,9.48
2023-03-17T16:33:40.194Z,9.39
2023-03-17T16:35:43.297Z,9.37
2023-03-17T16:37:46.563Z,9.30
2023-03-17T16:39:52.498Z,9.21
2023-03-17T16:41:55.703Z,9.10
2023-03-17T16:44:00.692Z,8.98
2023-03-17T16:46:05.508Z,8.78
2023-03-17T16:48:13.895Z,8.72
2023-03-17T16:50:18.770Z,8.66
2023-03-17T16:52:21.707Z,8.57
2023-03-17T16:54:24.683Z,8.40
2023-03-17T16:56:28.108Z,8.17
2023-03-17T16:58:34.224Z,7.96
2023-03-17T17:00:37.177Z,7.63
2023-03-17T17:02:40.303Z,7.32
2023-03-17T17:04:44.733Z,7.24
2023-03-17T17:06:47.716Z,6.97
2023-03-17T17:08:51.746Z,6.85
2023-03-17T17:10:54.686Z,6.85
2023-03-17T17:12:57.656Z,6.61
2023-03-17T17:15:00.636Z,6.55
2023-03-17T17:17:04.394Z,6.39
2023-03-17T17:19:15.720Z,6.25
2023-03-17T17:21:20.788Z,6.03
2023-03-17T17:23:25.226Z,5.94
2023-03-17T17:25:29.545Z,5.92
2023-03-17T17:27:32.669Z,5.73
2023-03-17T17:29:35.937Z,5.63
2023-03-17T17:31:40.353Z,5.51
2023-03-17T17:33:43.657Z,5.38
2023-03-17T17:35:47.678Z,5.30
2023-03-17T17:37:52.659Z,5.25
2023-03-17T17:39:55.827Z,5.19
2023-03-17T17:41:58.838Z,4.96
2023-03-17T17:44:01.717Z,4.91
2023-03-17T17:46:04.740Z,4.71
2023-03-17T17:48:07.645Z,4.58
2023-03-17T17:50:17.294Z,4.46
2023-03-17T17:52:20.107Z,4.35
2023-03-17T17:54:24.615Z,4.28
2023-03-17T17:56:27.428Z,4.21
2023-03-17T17:58:30.732Z,4.25
2023-03-17T18:00:33.822Z,4.17
2023-03-17T18:02:36.916Z,4.14
2023-03-17T18:04:39.860Z,4.09
2023-03-17T18:06:42.823Z,4.11
2023-03-17T18:08:45.942Z,4.11
2023-03-17T18:10:51.987Z,4.15
2023-03-17T18:12:55.941Z,4.12
2023-03-17T18:14:58.920Z,4.11
2023-03-17T18:17:01.781Z,3.94
2023-03-17T18:19:06.510Z,3.86
2023-03-17T18:21:10.156Z,3.78
2023-03-17T18:23:13.392Z,3.67
2023-03-17T18:25:16.781Z,3.55
2023-03-17T18:27:21.182Z,3.51
2023-03-17T18:29:23.950Z,3.43
2023-03-17T18:31:31.873Z,3.35
2023-03-17T18:33:35.095Z,3.37
2023-03-17T18:35:38.299Z,3.64
2023-03-17T18:37:41.527Z,3.47
2023-03-17T18:39:48.430Z,3.48
2023-03-17T18:41:56.406Z,3.41
2023-03-17T18:44:01.303Z,3.92
2023-03-17T18:46:04.735Z,3.89
2023-03-17T18:48:07.676Z,3.67
2023-03-17T18:50:12.602Z,3.59
2023-03-17T18:52:15.636Z,3.59
2023-03-17T18:54:18.444Z,3.85
2023-03-17T18:56:23.658Z,4.01
2023-03-17T18:58:26.654Z,3.91
2023-03-17T19:00:31.530Z,3.91
2023-03-17T19:02:34.674Z,4.00
2023-03-17T19:04:39.784Z,3.98
2023-03-17T19:06:43.061Z,3.98
2023-03-17T19:08:46.994Z,4.03
2023-03-17T19:10:50.386Z,4.06
2023-03-17T19:12:53.653Z,4.08
2023-03-17T19:14:56.733Z,4.04
2023-03-17T19:17:01.412Z,4.08
2023-03-17T19:19:04.456Z,4.21
2023-03-17T19:21:08.782Z,4.19
2023-03-17T19:23:12.748Z,4.11
2023-03-17T19:25:16.977Z,4.09
2023-03-17T19:27:20.349Z,4.19
2023-03-17T19:29:23.440Z,4.15
2023-03-17T19:31:27.429Z,4.14
2023-03-17T19:33:32.976Z,4.07
2023-03-17T19:35:35.883Z,4.02
2023-03-17T19:37:38.839Z,3.99
2023-03-17T19:39:44.640Z,4.00
2023-03-17T19:41:50.373Z,3.96
2023-03-17T19:43:53.170Z,3.89
2023-03-17T19:45:56.269Z,3.94
2023-03-17T19:47:59.112Z,3.88
2023-03-17T19:50:03.535Z,3.88
2023-03-17T19:52:06.867Z,3.89
2023-03-17T19:54:11.485Z,3.90
2023-03-17T19:56:14.815Z,3.90
2023-03-17T19:58:17.733Z,3.92
2023-03-17T20:00:22.845Z,3.87
2023-03-17T20:02:25.903Z,3.82
2023-03-17T20:04:29.103Z,3.78
2023-03-17T20:06:34.923Z,3.75
2023-03-17T20:08:38.031Z,3.77
2023-03-17T20:10:40.954Z,3.76
2023-03-17T20:12:46.083Z,3.71
2023-03-17T20:14:49.154Z,3.72
2023-03-17T20:16:52.274Z,3.73
2023-03-17T20:18:55.277Z,3.71
2023-03-17T20:21:00.436Z,3.71
2023-03-17T20:23:04.924Z,3.70
2023-03-17T20:25:10.654Z,3.65
2023-03-17T20:27:16.634Z,3.60
2023-03-17T20:29:20.226Z,3.51
2023-03-17T20:31:23.820Z,3.50
2023-03-17T20:33:27.063Z,3.48
2023-03-17T20:35:31.168Z,3.47
2023-03-17T20:37:34.275Z,3.36
2023-03-17T20:39:38.714Z,3.43
2023-03-17T20:41:41.920Z,3.33
2023-03-17T20:43:45.507Z,3.29
2023-03-17T20:45:51.375Z,3.20
2023-03-17T20:47:54.855Z,3.07
2023-03-17T20:49:59.173Z,3.03
2023-03-17T20:52:02.333Z,2.92
2023-03-17T20:54:05.599Z,2.92
2023-03-17T20:56:12.815Z,2.92
2023-03-17T20:58:15.845Z,2.93
2023-03-17T21:00:21.578Z,2.91
2023-03-17T21:02:24.668Z,2.85
2023-03-17T21:04:27.935Z,2.77
2023-03-17T21:06:31.735Z,2.67
2023-03-17T21:08:34.983Z,2.50
2023-03-17T21:10:37.854Z,2.24
2023-03-17T21:12:42.397Z,1.98
2023-03-17T21:14:45.622Z,1.75
2023-03-17T21:16:48.765Z,1.39
2023-03-17T21:18:51.878Z,1.21
2023-03-17T21:20:54.844Z,1.05
2023-03-17T21:22:58.164Z,0.90
2023-03-17T21:25:01.686Z,0.84
2023-03-17T21:27:07.154Z,0.78
2023-03-17T21:29:12.074Z,0.68
2023-03-17T21:31:17.453Z,0.63
2023-03-17T21:33:20.026Z,0.57
2023-03-17T21:35:25.162Z,0.55
2023-03-17T21:37:28.363Z,0.57
2023-03-17T21:39:32.972Z,0.51
2023-03-17T21:41:38.188Z,0.52
2023-03-17T21:43:41.049Z,0.52
2023-03-17T21:45:45.587Z,0.45
2023-03-17T21:47:48.468Z,0.24
2023-03-17T21:49:51.434Z,0.14
2023-03-17T21:51:55.032Z,-0.04
2023-03-17T21:53:58.342Z,-0.06
2023-03-17T21:56:01.461Z,-0.11
2023-03-17T21:58:04.393Z,-0.03
2023-03-17T22:00:09.933Z,-0.05
2023-03-17T22:02:17.965Z,0.02
2023-03-17T22:04:20.794Z,0.17
2023-03-17T22:06:26.483Z,0.20
2023-03-17T22:08:29.142Z,0.23
2023-03-17T22:10:32.422Z,0.22
2023-03-17T22:12:36.477Z,0.37
2023-03-17T22:14:39.622Z,0.41
2023-03-17T22:16:42.551Z,0.42
2023-03-17T22:18:47.780Z,0.41
2023-03-17T22:20:54.183Z,0.35
2023-03-17T22:22:57.126Z,0.40
2023-03-17T22:25:00.674Z,0.43
2023-03-17T22:27:03.885Z,0.47
2023-03-17T22:29:06.873Z,0.42
2023-03-17T22:31:13.988Z,0.46
2023-03-17T22:33:17.879Z,0.45
2023-03-17T22:35:23.709Z,0.48
2023-03-17T22:37:26.968Z,0.58
2023-03-17T22:39:29.894Z,0.58
2023-03-17T22:41:32.789Z,0.64
2023-03-17T22:43:36.196Z,0.58
2023-03-17T22:45:39.484Z,0.56
2023-03-17T22:47:42.938Z,0.60
2023-03-17T22:49:45.828Z,0.55
2023-03-17T22:51:50.468Z,0.55
2023-03-17T22:53:55.147Z,0.52
2023-03-17T22:55:58.379Z,0.39
2023-03-17T22:58:01.239Z,0.47
2023-03-17T23:00:09.340Z,0.48
2023-03-17T23:02:12.269Z,0.64
2023-03-17T23:04:15.246Z,0.66
2023-03-17T23:06:18.600Z,0.72
2023-03-17T23:08:23.542Z,0.72
2023-03-17T23:10:27.114Z,0.71
2023-03-17T23:12:30.061Z,0.81
2023-03-17T23:14:32.952Z,0.81
2023-03-17T23:16:35.893Z,0.80
2023-03-17T23:18:38.948Z,0.81
2023-03-17T23:20:42.860Z,0.74
2023-03-17T23:22:45.693Z,0.84
2023-03-17T23:24:50.338Z,0.84
2023-03-17T23:26:53.211Z,0.81
2023-03-17T23:28:56.419Z,0.82
2023-03-17T23:30:59.660Z,0.84
2023-03-17T23:33:03.304Z,0.85
2023-03-17T23:35:07.424Z,0.95
2023-03-17T23:37:10.616Z,0.93
2023-03-17T23:39:13.716Z,0.96
2023-03-17T23:41:18.695Z,0.92
2023-03-17T23:43:21.705Z,0.84
2023-03-17T23:45:25.238Z,0.85
2023-03-17T23:47:28.392Z,0.82
2023-03-17T23:49:31.453Z,0.83
2023-03-17T23:51:35.874Z,0.78
2023-03-17T23:53:42.702Z,0.75
2023-03-17T23:55:46.055Z,0.77
2023-03-17T23:58:02.213Z,0.66
